Time;durP1;ratioP1;P1;durP2;ratioP2;P2;SDS_P1;SDS_P2;PMS_P1;PMS_P2;Temp;Humidity;BMP_temperature;BMP_pressure;BME280_temperature;BME280_humidity;BME280_pressure;Samples;Min_cycle;Max_cycle;Signal;HPM_P1;HPM_P2
2022/01/25 00:10:35;;;;;;;33.13;24.63;;;;;;;;;;5055413;28;20469;-65
2022/01/25 00:26:35;;;;;;;34.83;26.37;;;;;;;;;;5055200;28;20414;-67
2022/01/25 00:29:12;;;;;;;32.33;25.50;;;;;;;;;;5053379;28;20435;-65
2022/01/25 00:31:38;;;;;;;33.90;27.00;;;;;;;;;;5054430;28;21058;-65
2022/01/25 00:34:06;;;;;;;36.90;27.23;;;;;;;;;;5054373;28;20923;-65
2022/01/25 00:36:32;;;;;;;34.67;27.53;;;;;;;;;;5054520;28;20546;-65
2022/01/25 00:38:59;;;;;;;35.93;26.07;;;;;;;;;;5054394;28;20517;-64
2022/01/25 00:41:25;;;;;;;39.77;27.83;;;;;;;;;;5054546;28;20250;-63
2022/01/25 00:43:52;;;;;;;37.33;27.40;;;;;;;;;;5054474;28;20931;-64
2022/01/25 00:46:20;;;;;;;34.37;27.07;;;;;;;;;;5054512;28;20430;-63
2022/01/25 00:48:49;;;;;;;33.80;26.87;;;;;;;;;;5054368;28;20431;-64
2022/01/25 00:52:17;;;;;;;35.73;27.97;;;;;;;;;;5054429;28;20526;-63
2022/01/25 00:54:25;;;;;;;38.50;28.57;;;;;;;;;;5039091;28;20811;-63
2022/01/25 00:56:51;;;;;;;38.27;28.03;;;;;;;;;;5054099;28;20446;-63
2022/01/25 00:59:18;;;;;;;36.57;27.80;;;;;;;;;;5054254;28;20447;-63
2022/01/25 01:01:45;;;;;;;37.33;28.47;;;;;;;;;;5054163;28;20435;-63
2022/01/25 01:04:11;;;;;;;39.47;29.53;;;;;;;;;;5054198;28;20984;-64
2022/01/25 01:06:42;;;;;;;36.63;27.80;;;;;;;;;;5054093;28;20458;-64
2022/01/25 01:09:09;;;;;;;35.70;27.53;;;;;;;;;;5054507;28;20793;-64
2022/01/25 01:11:42;;;;;;;37.53;28.17;;;;;;;;;;5053996;28;20574;-63
2022/01/25 01:41:07;;;;;;;35.77;28.10;;;;;;;;;;5009017;28;20431;-64
2022/01/25 01:43:35;;;;;;;35.67;28.27;;;;;;;;;;5053471;28;20957;-63
2022/01/25 01:48:49;;;;;;;36.10;28.40;;;;;;;;;;5053343;28;20508;-64
2022/01/25 01:51:39;;;;;;;34.87;27.93;;;;;;;;;;5053358;28;20435;-64
2022/01/25 01:54:05;;;;;;;34.37;27.57;;;;;;;;;;5052729;28;20507;-64
2022/01/25 01:56:31;;;;;;;32.90;27.03;;;;;;;;;;5053033;28;20950;-63
2022/01/25 01:58:58;;;;;;;37.87;27.30;;;;;;;;;;5053363;28;20439;-64
2022/01/25 02:01:26;;;;;;;37.97;28.50;;;;;;;;;;5053036;28;20434;-63
2022/01/25 02:03:53;;;;;;;39.43;28.17;;;;;;;;;;5052879;28;20998;-63
2022/01/25 02:06:19;;;;;;;36.60;28.17;;;;;;;;;;5052763;28;20442;-63
2022/01/25 02:08:45;;;;;;;35.37;27.87;;;;;;;;;;5052965;28;20439;-63
2022/01/25 02:11:13;;;;;;;32.03;25.83;;;;;;;;;;5052903;28;20544;-63
2022/01/25 02:13:42;;;;;;;34.53;26.73;;;;;;;;;;5052913;28;20550;-63
2022/01/25 02:16:17;;;;;;;34.27;26.30;;;;;;;;;;5052789;28;20431;-63
2022/01/25 02:24:14;;;;;;;33.63;26.43;;;;;;;;;;5053010;28;20473;-63
2022/01/25 02:26:40;;;;;;;34.43;25.03;;;;;;;;;;5052738;28;20423;-63
2022/01/25 02:29:06;;;;;;;30.30;23.93;;;;;;;;;;5052766;28;20465;-63
2022/01/25 02:31:32;;;;;;;33.73;24.63;;;;;;;;;;5052231;28;20660;-63
2022/01/25 02:33:58;;;;;;;33.17;23.97;;;;;;;;;;5052696;28;20443;-63
2022/01/25 02:36:27;;;;;;;31.70;23.33;;;;;;;;;;5052693;28;20473;-63
2022/01/25 02:38:55;;;;;;;31.20;23.27;;;;;;;;;;5052380;28;20973;-63
2022/01/25 02:41:21;;;;;;;31.27;23.43;;;;;;;;;;5052567;28;20434;-63
2022/01/25 02:43:48;;;;;;;30.43;23.00;;;;;;;;;;5052477;28;20478;-63
2022/01/25 02:48:53;;;;;;;30.03;21.07;;;;;;;;;;5052374;28;20443;-62
2022/01/25 02:51:20;;;;;;;31.47;22.20;;;;;;;;;;5052339;28;20541;-63
2022/01/25 02:53:46;;;;;;;28.83;21.53;;;;;;;;;;5052247;28;20822;-63
2022/01/25 02:56:15;;;;;;;28.43;21.30;;;;;;;;;;5052427;28;20452;-63
2022/01/25 02:58:41;;;;;;;30.87;22.10;;;;;;;;;;5050721;28;20203;-63
2022/01/25 03:01:07;;;;;;;29.83;21.37;;;;;;;;;;5052359;28;20431;-63
2022/01/25 03:03:33;;;;;;;28.07;20.17;;;;;;;;;;5052176;28;20825;-63
2022/01/25 03:05:59;;;;;;;30.40;21.93;;;;;;;;;;5050754;28;20196;-63
2022/01/25 03:08:25;;;;;;;29.63;21.10;;;;;;;;;;5052361;28;20505;-63
2022/01/25 03:10:51;;;;;;;27.13;20.43;;;;;;;;;;5051930;28;20808;-62
2022/01/25 03:13:23;;;;;;;27.33;19.27;;;;;;;;;;5052214;28;20482;-64
2022/01/25 03:18:40;;;;;;;29.63;21.97;;;;;;;;;;5054096;28;20874;-64
2022/01/25 03:21:15;;;;;;;29.23;22.07;;;;;;;;;;5055238;28;20224;-64
2022/01/25 03:23:41;;;;;;;30.97;21.57;;;;;;;;;;5056006;28;20430;-63
2022/01/25 03:26:07;;;;;;;28.73;22.23;;;;;;;;;;5056023;28;20484;-62
2022/01/25 03:28:34;;;;;;;29.67;21.47;;;;;;;;;;5056049;28;20946;-63
2022/01/25 03:31:00;;;;;;;27.83;20.97;;;;;;;;;;5055848;28;20451;-64
2022/01/25 03:33:26;;;;;;;30.87;22.47;;;;;;;;;;5055866;28;20577;-63
2022/01/25 03:35:52;;;;;;;32.17;22.90;;;;;;;;;;5055894;28;20458;-63
2022/01/25 03:38:18;;;;;;;31.53;22.27;;;;;;;;;;5055936;28;20438;-64
2022/01/25 03:40:45;;;;;;;30.93;22.70;;;;;;;;;;5055651;28;20488;-63
2022/01/25 03:43:13;;;;;;;31.10;22.67;;;;;;;;;;5055886;28;20523;-63
2022/01/25 03:45:44;;;;;;;32.50;22.23;;;;;;;;;;5055632;28;20473;-63
2022/01/25 03:50:39;;;;;;;31.43;22.80;;;;;;;;;;5055642;28;20453;-63
2022/01/25 03:53:05;;;;;;;32.53;23.40;;;;;;;;;;5055497;28;20466;-63
2022/01/25 03:55:31;;;;;;;30.17;23.57;;;;;;;;;;5055537;28;20434;-63
2022/01/25 03:57:57;;;;;;;34.10;24.83;;;;;;;;;;5055377;28;20443;-63
2022/01/25 04:00:23;;;;;;;32.30;23.97;;;;;;;;;;5055471;28;20442;-64
2022/01/25 04:02:56;;;;;;;31.03;23.33;;;;;;;;;;5055368;28;20211;-63
2022/01/25 04:05:34;;;;;;;36.37;26.90;;;;;;;;;;5055368;28;20226;-63
2022/01/25 04:08:00;;;;;;;33.87;25.70;;;;;;;;;;5055330;28;20430;-63
2022/01/25 04:10:26;;;;;;;34.73;27.00;;;;;;;;;;5055352;28;20465;-63
2022/01/25 04:12:52;;;;;;;34.90;26.40;;;;;;;;;;5054876;28;20324;-63
2022/01/25 04:15:18;;;;;;;36.33;26.30;;;;;;;;;;5055223;28;20438;-63
2022/01/25 04:17:49;;;;;;;34.40;25.93;;;;;;;;;;5054979;28;20441;-63
2022/01/25 04:20:22;;;;;;;35.47;25.47;;;;;;;;;;5055110;28;20460;-63
2022/01/25 04:25:33;;;;;;;34.87;24.30;;;;;;;;;;5054970;28;20442;-63
2022/01/25 04:28:00;;;;;;;36.07;27.40;;;;;;;;;;5054709;28;20923;-63
2022/01/25 04:30:26;;;;;;;36.43;27.20;;;;;;;;;;5054639;28;20200;-63
2022/01/25 04:35:39;;;;;;;36.77;26.57;;;;;;;;;;5054768;28;20450;-63
2022/01/25 04:49:13;;;;;;;36.53;27.03;;;;;;;;;;5054644;28;20422;-64
2022/01/25 04:51:56;;;;;;;38.00;27.10;;;;;;;;;;5054446;28;20450;-64
2022/01/25 04:54:35;;;;;;;37.90;27.63;;;;;;;;;;5054502;28;20446;-64
2022/01/25 04:59:42;;;;;;;38.63;27.43;;;;;;;;;;5054332;28;20526;-64
2022/01/25 05:02:14;;;;;;;36.60;27.37;;;;;;;;;;5054390;28;20434;-63
2022/01/25 05:04:46;;;;;;;38.93;27.40;;;;;;;;;;5054151;28;20938;-64
2022/01/25 05:07:33;;;;;;;37.80;27.80;;;;;;;;;;5054245;28;20455;-63
2022/01/25 05:10:01;;;;;;;36.93;27.17;;;;;;;;;;5054067;28;20489;-63
2022/01/25 05:12:51;;;;;;;38.50;27.40;;;;;;;;;;5053924;28;20486;-63
2022/01/25 05:15:27;;;;;;;39.37;28.10;;;;;;;;;;5053798;28;20438;-62
2022/01/25 05:18:05;;;;;;;37.80;27.70;;;;;;;;;;5053905;28;20953;-63
2022/01/25 05:23:17;;;;;;;37.97;28.63;;;;;;;;;;5054037;28;20422;-63
2022/01/25 05:25:43;;;;;;;40.63;29.40;;;;;;;;;;5053836;28;20459;-62
2022/01/25 05:28:09;;;;;;;43.00;30.67;;;;;;;;;;5053852;28;20427;-64
2022/01/25 05:30:35;;;;;;;41.63;28.63;;;;;;;;;;5053676;28;20438;-64
2022/01/25 05:33:02;;;;;;;41.23;28.60;;;;;;;;;;5053369;28;20692;-64
2022/01/25 05:35:28;;;;;;;41.13;29.33;;;;;;;;;;5053510;28;20431;-64
2022/01/25 05:37:54;;;;;;;44.40;29.97;;;;;;;;;;5053511;28;20450;-62
2022/01/25 05:40:39;;;;;;;42.27;29.30;;;;;;;;;;5052865;28;20435;-63
2022/01/25 05:48:20;;;;;;;41.00;30.53;;;;;;;;;;5053397;28;20493;-63
2022/01/25 05:50:46;;;;;;;44.23;30.33;;;;;;;;;;5053276;28;20427;-63
2022/01/25 05:53:12;;;;;;;40.53;29.63;;;;;;;;;;5053283;28;20784;-63
2022/01/25 05:55:39;;;;;;;43.47;30.53;;;;;;;;;;5053083;28;20192;-63
2022/01/25 05:58:06;;;;;;;42.73;30.50;;;;;;;;;;5053132;28;20660;-63
2022/01/25 06:00:32;;;;;;;41.00;30.27;;;;;;;;;;5052936;28;20841;-63
2022/01/25 06:02:58;;;;;;;44.60;30.13;;;;;;;;;;5052927;28;20524;-64
2022/01/25 06:05:25;;;;;;;41.20;30.30;;;;;;;;;;5053106;28;20434;-64
2022/01/25 06:07:51;;;;;;;42.30;29.70;;;;;;;;;;5052906;28;20202;-64
2022/01/25 06:10:17;;;;;;;42.70;30.57;;;;;;;;;;5052853;28;20510;-62
2022/01/25 06:12:45;;;;;;;44.30;30.23;;;;;;;;;;5052530;28;21048;-63
2022/01/25 06:15:11;;;;;;;43.40;30.63;;;;;;;;;;5052516;28;20833;-64
2022/01/25 06:17:37;;;;;;;41.50;29.20;;;;;;;;;;5052613;28;20536;-64
2022/01/25 06:20:03;;;;;;;44.70;30.53;;;;;;;;;;5052612;28;20922;-63
2022/01/25 06:22:29;;;;;;;39.10;28.53;;;;;;;;;;5052494;28;20669;-64
2022/01/25 06:24:55;;;;;;;40.50;29.43;;;;;;;;;;5052343;28;20431;-63
2022/01/25 06:27:21;;;;;;;41.17;29.63;;;;;;;;;;5052666;28;20223;-63
2022/01/25 06:29:49;;;;;;;43.57;30.13;;;;;;;;;;5052470;28;20238;-63
2022/01/25 06:32:16;;;;;;;45.77;30.90;;;;;;;;;;5052408;28;20236;-63
2022/01/25 06:34:44;;;;;;;46.73;31.27;;;;;;;;;;5052475;28;20427;-63
2022/01/25 06:37:11;;;;;;;48.60;31.93;;;;;;;;;;5050724;28;20509;-63
2022/01/25 06:39:37;;;;;;;46.13;32.47;;;;;;;;;;5052442;28;20931;-63
2022/01/25 06:42:04;;;;;;;42.13;29.80;;;;;;;;;;5052305;28;20442;-64
2022/01/25 06:44:32;;;;;;;42.60;29.90;;;;;;;;;;5052543;28;20478;-64
2022/01/25 06:47:00;;;;;;;43.37;31.17;;;;;;;;;;5052232;28;20478;-62
2022/01/25 06:49:26;;;;;;;48.83;31.20;;;;;;;;;;5052419;28;20438;-64
2022/01/25 06:51:52;;;;;;;46.77;33.20;;;;;;;;;;5052083;28;20442;-64
2022/01/25 06:54:18;;;;;;;48.77;33.80;;;;;;;;;;5052336;28;20474;-62
2022/01/25 06:56:44;;;;;;;46.73;32.40;;;;;;;;;;5052396;28;20439;-63
2022/01/25 06:59:10;;;;;;;48.63;32.77;;;;;;;;;;5052367;28;20208;-63
2022/01/25 07:01:36;;;;;;;42.60;30.80;;;;;;;;;;5052258;28;20439;-63
2022/01/25 07:04:04;;;;;;;42.17;30.57;;;;;;;;;;5052092;28;20269;-62
2022/01/25 07:06:30;;;;;;;49.23;31.97;;;;;;;;;;5052370;28;20555;-64
2022/01/25 07:08:56;;;;;;;44.53;31.13;;;;;;;;;;5052031;28;20458;-62
2022/01/25 07:11:23;;;;;;;48.17;32.00;;;;;;;;;;5052041;28;20494;-63
2022/01/25 07:13:49;;;;;;;44.73;31.40;;;;;;;;;;5052078;28;20478;-64
2022/01/25 07:16:15;;;;;;;46.47;32.03;;;;;;;;;;5052297;28;20500;-64
2022/01/25 07:18:41;;;;;;;45.40;31.20;;;;;;;;;;5052302;28;20810;-63
2022/01/25 07:21:09;;;;;;;44.23;30.00;;;;;;;;;;5052172;28;20430;-63
2022/01/25 07:23:35;;;;;;;47.07;32.87;;;;;;;;;;5052353;28;20827;-65
2022/01/25 07:26:01;;;;;;;47.50;32.93;;;;;;;;;;5051956;28;20445;-62
2022/01/25 07:28:28;;;;;;;45.33;31.27;;;;;;;;;;5052059;28;20451;-65
2022/01/25 07:30:54;;;;;;;48.43;32.63;;;;;;;;;;5051749;28;20465;-64
2022/01/25 07:33:20;;;;;;;46.43;32.30;;;;;;;;;;5051928;28;20993;-63
2022/01/25 07:35:47;;;;;;;48.03;32.73;;;;;;;;;;5051792;28;20204;-65
2022/01/25 07:38:15;;;;;;;48.83;32.77;;;;;;;;;;5052012;28;20447;-63
2022/01/25 07:40:41;;;;;;;47.03;32.23;;;;;;;;;;5051925;28;20488;-63
2022/01/25 07:43:07;;;;;;;47.23;33.10;;;;;;;;;;5051728;28;20431;-63
2022/01/25 07:45:35;;;;;;;48.70;32.43;;;;;;;;;;5051924;28;20462;-63
2022/01/25 07:48:01;;;;;;;44.10;31.80;;;;;;;;;;5051521;28;20446;-64
2022/01/25 07:50:27;;;;;;;50.53;34.27;;;;;;;;;;5051785;28;20953;-64
2022/01/25 07:52:54;;;;;;;47.97;32.10;;;;;;;;;;5051503;28;20536;-63
2022/01/25 07:55:22;;;;;;;46.03;32.87;;;;;;;;;;5051473;28;20433;-63
2022/01/25 07:57:47;;;;;;;44.97;31.73;;;;;;;;;;5051404;28;20446;-63
2022/01/25 08:00:14;;;;;;;45.97;32.33;;;;;;;;;;5051386;28;20798;-63
2022/01/25 08:02:41;;;;;;;48.40;33.30;;;;;;;;;;5051077;28;20216;-64
2022/01/25 08:05:07;;;;;;;46.20;32.20;;;;;;;;;;5054183;28;20431;-63
2022/01/25 08:07:33;;;;;;;45.23;31.30;;;;;;;;;;5054965;28;20454;-63
2022/01/25 08:09:59;;;;;;;45.73;32.10;;;;;;;;;;5054890;28;20431;-64
2022/01/25 08:12:27;;;;;;;46.37;31.97;;;;;;;;;;5054491;28;20882;-63
2022/01/25 08:14:57;;;;;;;48.20;33.00;;;;;;;;;;5054701;28;20278;-63
2022/01/25 08:17:23;;;;;;;46.90;33.00;;;;;;;;;;5054672;28;20945;-63
2022/01/25 08:19:49;;;;;;;49.23;33.20;;;;;;;;;;5054956;28;20431;-63
2022/01/25 08:22:15;;;;;;;48.77;32.60;;;;;;;;;;5055031;28;20235;-62
2022/01/25 08:24:41;;;;;;;47.37;31.77;;;;;;;;;;5054849;28;20676;-64
2022/01/25 08:27:07;;;;;;;49.00;33.23;;;;;;;;;;5054645;28;20533;-64
2022/01/25 08:29:34;;;;;;;48.47;33.43;;;;;;;;;;5054448;28;20778;-60
2022/01/25 08:32:00;;;;;;;48.23;32.83;;;;;;;;;;5054558;28;20450;-62
2022/01/25 08:34:26;;;;;;;48.00;31.63;;;;;;;;;;5054331;28;20435;-61
2022/01/25 08:36:52;;;;;;;50.67;33.43;;;;;;;;;;5054193;28;20572;-61
2022/01/25 08:39:18;;;;;;;49.23;34.07;;;;;;;;;;5054458;28;20200;-60
2022/01/25 08:41:44;;;;;;;44.17;31.70;;;;;;;;;;5054527;28;20449;-66
2022/01/25 08:44:10;;;;;;;47.27;32.63;;;;;;;;;;5054154;28;20192;-66
2022/01/25 08:46:39;;;;;;;49.90;33.47;;;;;;;;;;5054184;28;20469;-65
2022/01/25 08:49:05;;;;;;;50.70;33.10;;;;;;;;;;5054017;28;20939;-71
2022/01/25 08:51:31;;;;;;;47.10;32.30;;;;;;;;;;5054222;28;20938;-74
2022/01/25 08:53:57;;;;;;;48.33;32.80;;;;;;;;;;5054007;28;20483;-63
2022/01/25 08:56:23;;;;;;;47.43;33.07;;;;;;;;;;5054177;28;20204;-67
2022/01/25 08:58:49;;;;;;;47.90;33.57;;;;;;;;;;5053814;28;20567;-67
2022/01/25 09:01:15;;;;;;;45.10;30.63;;;;;;;;;;5054064;28;20518;-67
2022/01/25 09:03:42;;;;;;;50.40;35.30;;;;;;;;;;5053827;28;20220;-67
2022/01/25 09:06:09;;;;;;;51.17;33.73;;;;;;;;;;5054221;28;20211;-67
2022/01/25 09:08:35;;;;;;;45.07;31.57;;;;;;;;;;5054187;28;20438;-66
2022/01/25 09:11:04;;;;;;;46.50;33.03;;;;;;;;;;5053956;28;20445;-67
2022/01/25 09:13:31;;;;;;;47.03;31.53;;;;;;;;;;5054197;28;20501;-67
2022/01/25 09:15:57;;;;;;;48.30;33.13;;;;;;;;;;5052631;28;20561;-67
2022/01/25 09:18:23;;;;;;;46.93;31.60;;;;;;;;;;5053790;28;20533;-67
2022/01/25 09:20:51;;;;;;;45.43;31.40;;;;;;;;;;5053830;28;20466;-67
2022/01/25 09:23:18;;;;;;;46.70;32.57;;;;;;;;;;5053916;28;20439;-67
2022/01/25 09:25:45;;;;;;;49.13;33.30;;;;;;;;;;5053831;28;20442;-67
2022/01/25 09:28:12;;;;;;;46.93;32.57;;;;;;;;;;5053715;28;20537;-67
2022/01/25 09:30:38;;;;;;;50.10;34.40;;;;;;;;;;5053420;28;20434;-66
2022/01/25 09:33:04;;;;;;;47.33;31.27;;;;;;;;;;5053309;28;20486;-66
2022/01/25 09:35:30;;;;;;;47.50;33.30;;;;;;;;;;5053495;28;20294;-66
2022/01/25 09:37:58;;;;;;;48.37;32.90;;;;;;;;;;5053437;28;20466;-68
2022/01/25 09:40:25;;;;;;;47.23;31.33;;;;;;;;;;5053413;28;20867;-68
2022/01/25 09:42:54;;;;;;;46.53;33.13;;;;;;;;;;5053287;28;20798;-68
2022/01/25 09:45:20;;;;;;;48.53;31.13;;;;;;;;;;5053176;28;20441;-68
2022/01/25 09:47:47;;;;;;;51.93;33.80;;;;;;;;;;5053152;28;20445;-68
2022/01/25 09:50:13;;;;;;;46.70;32.30;;;;;;;;;;5053316;28;20435;-67
2022/01/25 09:52:41;;;;;;;44.73;31.87;;;;;;;;;;5053112;28;20565;-68
2022/01/25 09:55:12;;;;;;;46.53;31.67;;;;;;;;;;5053141;28;20423;-67
2022/01/25 09:57:38;;;;;;;50.10;31.83;;;;;;;;;;5052957;28;20450;-68
2022/01/25 10:00:04;;;;;;;49.20;32.80;;;;;;;;;;5052849;28;20439;-67
2022/01/25 10:02:37;;;;;;;46.20;32.63;;;;;;;;;;5053011;28;20603;-68
2022/01/25 10:05:15;;;;;;;51.20;31.23;;;;;;;;;;5052758;28;20438;-68
2022/01/25 10:07:41;;;;;;;48.17;32.63;;;;;;;;;;5052902;28;20447;-67
2022/01/25 10:10:08;;;;;;;46.10;31.60;;;;;;;;;;5052628;28;20439;-67
2022/01/25 10:12:35;;;;;;;46.83;31.93;;;;;;;;;;5053459;28;20488;-68
2022/01/25 10:15:09;;;;;;;44.87;30.13;;;;;;;;;;5052803;28;20439;-68
2022/01/25 10:17:36;;;;;;;46.53;31.13;;;;;;;;;;5052843;28;20450;-67
2022/01/25 10:20:03;;;;;;;43.20;29.57;;;;;;;;;;5052650;28;20427;-67
2022/01/25 10:22:40;;;;;;;47.23;31.07;;;;;;;;;;5052821;28;20435;-66
2022/01/25 10:25:07;;;;;;;49.53;31.53;;;;;;;;;;5052750;28;20441;-67
2022/01/25 10:28:04;;;;;;;47.57;30.30;;;;;;;;;;5052362;28;20435;-67
2022/01/25 10:30:32;;;;;;;47.57;31.93;;;;;;;;;;5052986;28;20435;-67
2022/01/25 10:33:01;;;;;;;45.13;31.07;;;;;;;;;;5052485;28;20474;-66
2022/01/25 10:35:28;;;;;;;48.90;31.87;;;;;;;;;;5052422;28;20441;-68
2022/01/25 10:37:55;;;;;;;47.07;32.37;;;;;;;;;;5052477;28;20469;-67
2022/01/25 10:40:34;;;;;;;47.57;31.23;;;;;;;;;;5052313;28;20464;-67
2022/01/25 10:43:00;;;;;;;43.90;29.80;;;;;;;;;;5052466;28;20434;-68
2022/01/25 10:45:26;;;;;;;44.63;29.47;;;;;;;;;;5052277;28;20821;-69
2022/01/25 10:47:55;;;;;;;43.50;29.70;;;;;;;;;;5052209;28;20196;-68
2022/01/25 10:50:22;;;;;;;44.87;30.43;;;;;;;;;;5052300;28;20204;-68
2022/01/25 10:53:02;;;;;;;45.63;30.77;;;;;;;;;;5051984;28;20517;-68
2022/01/25 10:55:35;;;;;;;47.80;30.30;;;;;;;;;;5052205;28;20478;-68
2022/01/25 10:58:02;;;;;;;45.40;30.80;;;;;;;;;;5051816;28;20553;-67
2022/01/25 11:00:32;;;;;;;47.77;31.83;;;;;;;;;;5052054;28;20439;-68
2022/01/25 11:02:59;;;;;;;48.57;31.23;;;;;;;;;;5051848;28;20450;-67
2022/01/25 11:05:26;;;;;;;44.47;29.77;;;;;;;;;;5052084;28;20522;-66
2022/01/25 11:07:52;;;;;;;43.80;30.00;;;;;;;;;;5051819;28;20443;-66
2022/01/25 11:10:19;;;;;;;44.90;29.63;;;;;;;;;;5051973;28;20855;-67
2022/01/25 11:13:00;;;;;;;44.77;29.73;;;;;;;;;;5052108;28;21020;-65
2022/01/25 11:15:26;;;;;;;45.87;29.77;;;;;;;;;;5051850;28;20441;-64
2022/01/25 11:17:52;;;;;;;47.60;30.33;;;;;;;;;;5051891;28;20443;-79
2022/01/25 11:20:20;;;;;;;44.97;29.77;;;;;;;;;;5052161;28;20438;-68
2022/01/25 11:22:49;;;;;;;46.30;30.90;;;;;;;;;;5051660;28;20211;-62
2022/01/25 11:25:18;;;;;;;42.17;29.30;;;;;;;;;;5051929;28;20437;-63
2022/01/25 11:27:45;;;;;;;45.37;29.87;;;;;;;;;;5051678;28;20446;-70
2022/01/25 11:30:13;;;;;;;41.03;27.80;;;;;;;;;;5050750;28;20856;-71
2022/01/25 11:32:40;;;;;;;43.93;29.57;;;;;;;;;;5051689;28;20481;-65
2022/01/25 11:35:08;;;;;;;47.60;29.77;;;;;;;;;;5051630;28;20437;-65
2022/01/25 11:37:38;;;;;;;45.17;28.43;;;;;;;;;;5051653;28;20482;-66
2022/01/25 11:40:04;;;;;;;46.50;29.27;;;;;;;;;;5054532;28;20439;-71
2022/01/25 11:42:36;;;;;;;47.27;30.13;;;;;;;;;;5054380;28;21041;-72
2022/01/25 11:45:06;;;;;;;44.97;29.73;;;;;;;;;;5055469;28;20423;-69
2022/01/25 11:47:32;;;;;;;46.23;29.83;;;;;;;;;;5055365;28;20442;-65
2022/01/25 11:50:00;;;;;;;44.83;29.27;;;;;;;;;;5055348;28;20492;-65
2022/01/25 11:52:26;;;;;;;46.43;30.67;;;;;;;;;;5055488;28;20585;-65
2022/01/25 11:54:55;;;;;;;42.30;28.93;;;;;;;;;;5055360;28;20445;-65
2022/01/25 11:57:22;;;;;;;46.63;28.57;;;;;;;;;;5055151;28;20473;-65
2022/01/25 11:59:51;;;;;;;45.60;30.07;;;;;;;;;;5054911;28;20438;-65
2022/01/25 12:02:32;;;;;;;41.60;28.57;;;;;;;;;;5055014;28;20449;-68
2022/01/25 12:05:03;;;;;;;45.30;29.40;;;;;;;;;;5054406;28;20447;-68
2022/01/25 12:07:35;;;;;;;42.23;30.03;;;;;;;;;;5052646;28;20445;-68
2022/01/25 12:10:13;;;;;;;46.57;29.40;;;;;;;;;;5054701;28;20862;-68
2022/01/25 12:12:40;;;;;;;45.27;29.07;;;;;;;;;;5054424;28;20551;-68
2022/01/25 12:15:13;;;;;;;43.83;29.07;;;;;;;;;;5054423;28;20430;-68
2022/01/25 12:17:39;;;;;;;47.23;29.70;;;;;;;;;;5054904;28;20443;-68
2022/01/25 12:20:18;;;;;;;47.03;29.20;;;;;;;;;;5054686;28;20441;-68
2022/01/25 12:22:47;;;;;;;42.97;27.93;;;;;;;;;;5054800;28;20192;-68
2022/01/25 12:25:46;;;;;;;47.97;29.60;;;;;;;;;;5054881;28;20461;-68
2022/01/25 12:28:21;;;;;;;45.20;28.80;;;;;;;;;;5054363;28;20914;-69
2022/01/25 12:30:49;;;;;;;45.37;29.63;;;;;;;;;;5054543;28;20430;-68
2022/01/25 12:33:20;;;;;;;45.97;28.77;;;;;;;;;;5054273;28;20540;-68
2022/01/25 12:35:47;;;;;;;42.63;29.03;;;;;;;;;;5054358;28;20985;-68
2022/01/25 12:38:15;;;;;;;42.20;27.83;;;;;;;;;;5054378;28;20805;-68
2022/01/25 12:40:53;;;;;;;42.93;27.70;;;;;;;;;;5054114;28;20435;-67
2022/01/25 12:43:20;;;;;;;43.23;28.50;;;;;;;;;;5054395;28;20444;-68
2022/01/25 12:45:49;;;;;;;44.17;28.40;;;;;;;;;;5054404;28;20435;-69
2022/01/25 12:48:16;;;;;;;40.70;26.70;;;;;;;;;;5054379;28;20485;-68
2022/01/25 12:50:44;;;;;;;44.57;27.90;;;;;;;;;;5054024;28;20954;-68
2022/01/25 12:53:17;;;;;;;40.23;27.77;;;;;;;;;;5053883;28;20863;-68
2022/01/25 12:55:45;;;;;;;44.93;26.37;;;;;;;;;;5051534;28;20435;-68
2022/01/25 12:58:12;;;;;;;41.27;27.03;;;;;;;;;;5053241;28;20927;-68
2022/01/25 13:00:40;;;;;;;44.73;27.70;;;;;;;;;;5053927;28;20438;-68
2022/01/25 13:03:28;;;;;;;44.97;27.97;;;;;;;;;;5053714;28;20467;-68
2022/01/25 13:05:55;;;;;;;44.03;27.37;;;;;;;;;;5046521;28;20787;-68
2022/01/25 13:08:23;;;;;;;44.50;28.10;;;;;;;;;;5054004;28;20545;-68
2022/01/25 13:10:50;;;;;;;43.77;27.20;;;;;;;;;;5053646;28;20973;-68
2022/01/25 13:13:31;;;;;;;43.20;27.40;;;;;;;;;;5053545;28;20467;-68
2022/01/25 13:15:58;;;;;;;42.03;27.90;;;;;;;;;;5053552;28;20493;-67
2022/01/25 13:18:29;;;;;;;43.27;27.97;;;;;;;;;;5053595;28;20877;-69
2022/01/25 13:21:06;;;;;;;42.70;27.63;;;;;;;;;;5053494;28;20438;-69
2022/01/25 13:23:33;;;;;;;43.37;27.63;;;;;;;;;;5053531;28;20430;-69
2022/01/25 13:26:10;;;;;;;39.20;25.53;;;;;;;;;;5053429;28;20434;-68
2022/01/25 13:31:08;;;;;;;42.77;26.73;;;;;;;;;;5053268;28;20443;-69
2022/01/25 13:33:34;;;;;;;40.87;26.23;;;;;;;;;;5052965;28;20760;-69
2022/01/25 13:36:01;;;;;;;37.50;25.57;;;;;;;;;;5053259;28;20431;-67
2022/01/25 13:38:30;;;;;;;38.37;26.23;;;;;;;;;;5053206;28;20435;-68
2022/01/25 13:41:16;;;;;;;37.53;25.10;;;;;;;;;;5053125;28;21060;-68
2022/01/25 13:46:23;;;;;;;38.23;25.00;;;;;;;;;;5053150;28;20438;-67
2022/01/25 13:48:55;;;;;;;36.57;22.77;;;;;;;;;;5052963;28;20569;-67
2022/01/25 13:51:22;;;;;;;35.47;23.93;;;;;;;;;;5053144;28;20430;-68
2022/01/25 13:53:52;;;;;;;42.40;26.07;;;;;;;;;;5052600;28;20482;-69
2022/01/25 13:56:19;;;;;;;35.40;23.67;;;;;;;;;;5052855;28;21060;-68
2022/01/25 13:58:47;;;;;;;43.60;26.40;;;;;;;;;;5052863;28;20445;-68
2022/01/25 14:01:15;;;;;;;38.73;24.93;;;;;;;;;;5052375;28;20443;-69
2022/01/25 14:03:42;;;;;;;35.97;23.97;;;;;;;;;;5052441;28;20803;-68
2022/01/25 14:06:23;;;;;;;39.97;25.27;;;;;;;;;;5052613;28;20450;-68
2022/01/25 14:08:50;;;;;;;38.07;26.37;;;;;;;;;;5048858;28;20445;-68
2022/01/25 14:11:30;;;;;;;36.53;24.40;;;;;;;;;;5052600;28;20469;-70
2022/01/25 14:24:50;;;;;;;39.17;24.90;;;;;;;;;;5052672;28;20738;-68
2022/01/25 14:27:20;;;;;;;36.50;24.77;;;;;;;;;;5052617;28;20541;-68
2022/01/25 14:29:50;;;;;;;38.90;24.60;;;;;;;;;;5052600;28;20464;-68
2022/01/25 14:32:16;;;;;;;36.07;25.17;;;;;;;;;;5052312;28;20442;-70
2022/01/25 14:34:42;;;;;;;41.70;26.37;;;;;;;;;;5052429;28;20486;-70
2022/01/25 14:37:12;;;;;;;40.57;26.17;;;;;;;;;;5052141;28;20207;-69
2022/01/25 14:39:40;;;;;;;40.73;26.93;;;;;;;;;;5052111;28;20250;-68
2022/01/25 14:42:09;;;;;;;36.03;24.67;;;;;;;;;;5052034;28;20936;-68
2022/01/25 14:44:39;;;;;;;41.40;26.83;;;;;;;;;;5050645;28;20439;-69
2022/01/25 14:47:12;;;;;;;37.20;25.37;;;;;;;;;;5050460;28;20468;-69
2022/01/25 14:49:45;;;;;;;37.27;25.57;;;;;;;;;;5052263;28;20460;-70
2022/01/25 14:52:11;;;;;;;40.37;25.63;;;;;;;;;;5052135;28;20560;-70
2022/01/25 14:54:38;;;;;;;42.07;26.23;;;;;;;;;;5052056;28;20565;-68
2022/01/25 14:57:07;;;;;;;40.63;25.07;;;;;;;;;;5051902;28;20203;-69
2022/01/25 14:59:33;;;;;;;42.57;27.23;;;;;;;;;;5052187;28;20438;-69
2022/01/25 15:02:00;;;;;;;42.40;27.67;;;;;;;;;;5050511;28;20430;-69
2022/01/25 15:04:31;;;;;;;41.00;25.83;;;;;;;;;;5052352;28;20872;-69
2022/01/25 15:06:57;;;;;;;44.03;25.87;;;;;;;;;;5052214;28;20518;-67
2022/01/25 15:09:23;;;;;;;42.03;26.73;;;;;;;;;;5051957;28;20871;-68
2022/01/25 15:11:51;;;;;;;42.23;26.40;;;;;;;;;;5051707;28;20506;-67
2022/01/25 15:14:20;;;;;;;40.33;26.27;;;;;;;;;;5053753;28;20208;-66
2022/01/25 15:16:47;;;;;;;41.57;27.97;;;;;;;;;;5056317;28;20430;-64
2022/01/25 15:19:18;;;;;;;43.33;26.13;;;;;;;;;;5055982;28;20915;-66
2022/01/25 15:21:46;;;;;;;46.63;28.20;;;;;;;;;;5056337;28;20825;-66
2022/01/25 15:24:12;;;;;;;42.50;26.63;;;;;;;;;;5055877;28;20434;-65
2022/01/25 15:26:38;;;;;;;43.67;26.70;;;;;;;;;;5056030;28;20804;-65
2022/01/25 15:29:06;;;;;;;39.13;25.80;;;;;;;;;;5055705;28;20889;-66
2022/01/25 15:31:32;;;;;;;41.90;26.53;;;;;;;;;;5055972;28;20427;-65
2022/01/25 15:33:58;;;;;;;42.40;26.33;;;;;;;;;;5055660;28;20482;-67
2022/01/25 15:36:24;;;;;;;40.50;25.67;;;;;;;;;;5055938;28;20499;-65
2022/01/25 15:38:53;;;;;;;42.97;26.40;;;;;;;;;;5055834;28;20664;-66
2022/01/25 15:41:22;;;;;;;37.83;25.97;;;;;;;;;;5055830;28;20211;-66
2022/01/25 15:43:58;;;;;;;40.23;26.07;;;;;;;;;;5055477;28;20431;-66
2022/01/25 15:46:29;;;;;;;43.10;26.33;;;;;;;;;;5055583;28;20422;-66
2022/01/25 15:48:56;;;;;;;46.37;26.50;;;;;;;;;;5055690;28;20430;-66
2022/01/25 15:51:23;;;;;;;43.30;26.70;;;;;;;;;;5055485;28;20488;-66
2022/01/25 15:53:49;;;;;;;42.57;28.40;;;;;;;;;;5055304;28;20486;-64
2022/01/25 15:56:17;;;;;;;47.60;27.63;;;;;;;;;;5055467;28;20431;-65
2022/01/25 15:58:43;;;;;;;48.10;27.37;;;;;;;;;;5055509;28;20534;-66
2022/01/25 16:01:10;;;;;;;39.57;26.17;;;;;;;;;;5055466;28;21083;-67
2022/01/25 16:03:36;;;;;;;38.77;26.30;;;;;;;;;;5055447;28;20477;-66
2022/01/25 16:06:03;;;;;;;40.27;26.43;;;;;;;;;;5055332;28;20442;-65
2022/01/25 16:08:29;;;;;;;43.33;27.40;;;;;;;;;;5055066;28;20431;-65
2022/01/25 16:10:55;;;;;;;39.50;25.50;;;;;;;;;;5055102;28;20807;-65
2022/01/25 16:13:23;;;;;;;43.20;28.67;;;;;;;;;;5055256;28;20310;-66